createdAt,value
2018-10-03T00:01:37.500Z,100.00
2018-10-03T00:04:07.003Z,100.00
2018-10-03T00:06:36.486Z,100.00
2018-10-03T00:09:08.291Z,99.82
2018-10-03T00:11:37.707Z,99.84
2018-10-03T00:14:07.936Z,100.00
2018-10-03T00:16:37.393Z,99.54
2018-10-03T00:19:06.846Z,99.89
2018-10-03T00:21:36.310Z,99.72
2018-10-03T00:24:07.848Z,99.65
2018-10-03T00:26:37.347Z,99.24
2018-10-03T00:29:06.807Z,99.02
2018-10-03T00:31:36.538Z,98.50
2018-10-03T00:34:06.135Z,99.52
2018-10-03T00:36:35.724Z,99.74
2018-10-03T00:39:07.693Z,98.68
2018-10-03T00:41:37.144Z,99.06
2018-10-03T00:44:06.895Z,97.53
2018-10-03T00:46:36.426Z,98.15
2018-10-03T00:49:06.527Z,98.68
2018-10-03T00:51:36.147Z,97.30
2018-10-03T00:54:05.721Z,97.98
2018-10-03T00:56:36.211Z,98.21
2018-10-03T00:59:05.908Z,97.41
2018-10-03T01:01:35.335Z,97.62
2018-10-03T01:04:04.824Z,97.16
2018-10-03T01:06:34.272Z,96.60
2018-10-03T01:09:04.027Z,94.89
2018-10-03T01:11:33.487Z,94.21
2018-10-03T01:14:02.924Z,94.12
2018-10-03T01:16:32.635Z,94.39
2018-10-03T01:19:02.115Z,94.58
2018-10-03T01:21:31.537Z,93.34
2018-10-03T01:24:01.007Z,93.74
2018-10-03T01:26:30.424Z,93.75
2018-10-03T01:28:59.979Z,91.86
2018-10-03T01:31:29.427Z,92.41
2018-10-03T01:33:59.453Z,91.88
2018-10-03T01:36:29.384Z,91.58
2018-10-03T01:38:59.575Z,91.72
2018-10-03T01:41:29.662Z,91.53
2018-10-03T01:44:00.122Z,91.56
2018-10-03T01:46:30.402Z,92.08
2018-10-03T01:49:00.651Z,91.83
2018-10-03T01:51:30.545Z,90.32
2018-10-03T01:54:00.628Z,89.04
2018-10-03T01:56:32.623Z,89.24
2018-10-03T01:59:02.812Z,89.61
2018-10-03T02:01:32.865Z,89.79
2018-10-03T02:04:02.893Z,89.65
2018-10-03T02:06:33.336Z,89.87
2018-10-03T02:09:03.967Z,90.07
2018-10-03T02:11:34.375Z,90.49
2018-10-03T02:14:04.696Z,89.04
2018-10-03T02:16:34.997Z,88.48
2018-10-03T02:19:05.357Z,88.81
2018-10-03T02:21:35.812Z,89.04
2018-10-03T02:24:06.453Z,89.09
2018-10-03T02:26:36.846Z,89.48
2018-10-03T02:29:08.548Z,89.67
2018-10-03T02:31:39.588Z,89.43
2018-10-03T02:34:09.794Z,90.05
2018-10-03T02:36:40.419Z,89.60
2018-10-03T02:39:11.235Z,90.33
2018-10-03T02:41:42.016Z,90.75
2018-10-03T02:44:15.109Z,90.58
2018-10-03T02:46:45.742Z,91.21
2018-10-03T02:49:16.417Z,90.74
2018-10-03T02:51:46.657Z,90.35
2018-10-03T02:54:17.334Z,91.38
2018-10-03T02:56:47.933Z,91.95
2018-10-03T02:59:18.578Z,91.65
2018-10-03T03:01:49.177Z,88.51
2018-10-03T03:04:19.808Z,88.37
2018-10-03T03:06:50.485Z,88.04
2018-10-03T03:09:20.966Z,86.53
2018-10-03T03:11:51.410Z,87.92
2018-10-03T03:14:21.735Z,86.80
2018-10-03T03:16:52.071Z,87.84
2018-10-03T03:19:22.237Z,88.43
2018-10-03T03:21:52.338Z,88.88
2018-10-03T03:24:22.457Z,87.92
2018-10-03T03:26:52.787Z,88.52
2018-10-03T03:29:23.177Z,88.93
2018-10-03T03:31:53.888Z,88.71
2018-10-03T03:34:24.509Z,89.34
2018-10-03T03:36:54.644Z,88.71
2018-10-03T03:39:25.199Z,89.05
2018-10-03T03:41:55.855Z,88.00
2018-10-03T03:44:26.067Z,88.71
2018-10-03T03:46:56.480Z,88.53
2018-10-03T03:49:26.897Z,88.75
2018-10-03T03:51:57.324Z,88.58
2018-10-03T03:54:27.298Z,89.67
2018-10-03T03:56:57.280Z,90.03
2018-10-03T03:59:27.432Z,89.95
2018-10-03T04:01:57.597Z,89.48
2018-10-03T04:04:28.036Z,90.06
2018-10-03T04:06:58.069Z,90.33
2018-10-03T04:09:28.268Z,90.39
2018-10-03T04:11:58.500Z,90.98
2018-10-03T04:14:28.524Z,90.91
2018-10-03T04:16:58.388Z,91.34
2018-10-03T04:19:28.554Z,90.65
2018-10-03T04:21:58.864Z,90.08
2018-10-03T04:24:28.952Z,90.07
2018-10-03T04:26:58.841Z,89.97
2018-10-03T04:29:29.073Z,90.10
2018-10-03T04:31:59.319Z,90.91
2018-10-03T04:34:30.079Z,90.48
2018-10-03T04:37:00.789Z,90.63
2018-10-03T04:39:31.820Z,91.06
2018-10-03T04:42:01.435Z,90.80
2018-10-03T04:44:30.996Z,90.88
2018-10-03T04:47:00.808Z,91.09
2018-10-03T04:49:30.841Z,91.37
2018-10-03T04:52:00.950Z,91.96
2018-10-03T04:54:31.009Z,92.05
2018-10-03T04:57:00.987Z,92.00
2018-10-03T04:59:30.804Z,92.32
2018-10-03T05:02:00.372Z,91.85
2018-10-03T05:04:30.060Z,91.59
2018-10-03T05:06:59.876Z,91.60
2018-10-03T05:09:29.438Z,91.30
2018-10-03T05:11:59.990Z,91.92
2018-10-03T05:14:29.853Z,91.71
2018-10-03T05:16:59.634Z,91.33
2018-10-03T05:19:31.198Z,91.43
2018-10-03T05:22:00.799Z,91.53
2018-10-03T05:24:30.545Z,90.35
2018-10-03T05:27:00.140Z,90.73
2018-10-03T05:29:29.792Z,90.61
2018-10-03T05:31:59.364Z,89.41
2018-10-03T05:34:28.977Z,89.82
2018-10-03T05:36:58.688Z,89.62
2018-10-03T05:39:28.281Z,88.89
2018-10-03T05:41:57.836Z,89.64
2018-10-03T05:44:27.325Z,89.11
2018-10-03T05:46:56.947Z,90.07
2018-10-03T05:49:27.722Z,90.28
2018-10-03T05:51:57.375Z,90.80
2018-10-03T05:54:26.980Z,90.92
2018-10-03T05:56:57.443Z,90.69
2018-10-03T05:59:26.904Z,91.40
2018-10-03T06:01:56.319Z,90.49
2018-10-03T06:04:25.759Z,91.30
2018-10-03T06:06:55.184Z,91.90
2018-10-03T06:09:24.604Z,91.91
2018-10-03T06:11:54.046Z,92.13
2018-10-03T06:14:23.463Z,92.09
2018-10-03T06:16:52.874Z,92.38
2018-10-03T06:19:22.307Z,92.32
2018-10-03T06:21:51.757Z,92.20
2018-10-03T06:24:21.229Z,90.85
2018-10-03T06:26:50.666Z,89.14
2018-10-03T06:29:20.188Z,89.02
2018-10-03T06:31:49.620Z,88.08
2018-10-03T06:34:20.161Z,87.83
2018-10-03T06:36:49.579Z,87.05
2018-10-03T06:39:19.069Z,85.79
2018-10-03T06:41:48.449Z,86.12
2018-10-03T06:44:17.864Z,85.19
2018-10-03T06:46:47.312Z,84.92
2018-10-03T06:49:16.725Z,85.21
2018-10-03T06:51:46.156Z,85.30
2018-10-03T06:54:15.592Z,85.33
2018-10-03T06:56:45.120Z,86.02
2018-10-03T06:59:14.579Z,85.42
2018-10-03T07:01:43.999Z,85.27
2018-10-03T07:04:13.529Z,85.01
2018-10-03T07:06:42.987Z,84.05
2018-10-03T07:09:12.397Z,83.88
2018-10-03T07:11:41.848Z,84.13
2018-10-03T07:14:11.447Z,83.83
2018-10-03T07:16:40.895Z,83.96
2018-10-03T07:19:10.352Z,82.64
2018-10-03T07:21:39.976Z,82.31
2018-10-03T07:24:09.419Z,81.96
2018-10-03T07:26:38.847Z,81.88
2018-10-03T07:29:08.280Z,82.63
2018-10-03T07:31:37.709Z,81.38
2018-10-03T07:34:07.213Z,82.39
2018-10-03T07:36:36.643Z,82.67
2018-10-03T07:39:08.399Z,80.80
2018-10-03T07:41:37.825Z,80.45
2018-10-03T07:44:07.700Z,80.43
2018-10-03T07:46:37.116Z,79.60
2018-10-03T07:49:06.617Z,78.85
2018-10-03T07:51:36.078Z,79.27
2018-10-03T07:54:05.557Z,78.80
2018-10-03T07:56:35.041Z,79.01
2018-10-03T07:59:04.632Z,78.60
2018-10-03T08:01:34.070Z,77.25
2018-10-03T08:04:03.479Z,77.89
2018-10-03T08:06:32.920Z,77.14
2018-10-03T08:09:02.348Z,77.24
2018-10-03T08:11:31.884Z,78.10
2018-10-03T08:14:01.301Z,77.68
2018-10-03T08:16:30.738Z,76.74
2018-10-03T08:19:00.243Z,77.35
2018-10-03T08:21:29.689Z,77.47
2018-10-03T08:23:59.091Z,77.74
2018-10-03T08:26:28.519Z,77.21
2018-10-03T08:28:57.937Z,77.38
2018-10-03T08:31:27.336Z,77.05
2018-10-03T08:33:56.760Z,76.65
2018-10-03T08:36:26.175Z,77.30
2018-10-03T08:38:55.709Z,77.66
2018-10-03T08:41:25.154Z,75.97
2018-10-03T08:43:54.532Z,77.22
2018-10-03T08:46:23.986Z,76.86
2018-10-03T08:48:53.403Z,76.44
2018-10-03T08:51:22.832Z,75.55
2018-10-03T08:53:52.271Z,74.37
2018-10-03T08:56:21.672Z,74.06
2018-10-03T08:58:51.085Z,74.44
2018-10-03T09:01:20.603Z,74.40
2018-10-03T09:03:50.012Z,74.79
2018-10-03T09:06:19.584Z,74.25
2018-10-03T09:08:48.987Z,73.60
2018-10-03T09:11:18.384Z,72.80
2018-10-03T09:13:47.836Z,73.02
2018-10-03T09:16:17.227Z,71.83
2018-10-03T09:18:46.644Z,72.79
2018-10-03T09:21:16.151Z,72.95
2018-10-03T09:23:45.555Z,72.02
2018-10-03T09:26:14.984Z,72.39
2018-10-03T09:28:44.416Z,72.17
2018-10-03T09:31:14.056Z,71.51
2018-10-03T09:33:43.551Z,70.80
2018-10-03T09:36:12.995Z,72.03
2018-10-03T09:38:42.403Z,72.87
2018-10-03T09:41:11.827Z,73.51
2018-10-03T09:43:41.384Z,72.68
2018-10-03T09:46:10.775Z,72.20
2018-10-03T09:48:40.191Z,72.84
2018-10-03T09:51:09.629Z,72.94
2018-10-03T09:53:39.049Z,71.19
2018-10-03T09:56:08.795Z,71.57
2018-10-03T09:58:38.355Z,70.34
2018-10-03T10:01:12.976Z,71.51
2018-10-03T10:03:42.390Z,71.59
2018-10-03T10:06:11.812Z,70.34
2018-10-03T10:08:41.240Z,70.14
2018-10-03T10:11:10.665Z,68.43
2018-10-03T10:13:40.148Z,69.86
2018-10-03T10:16:09.583Z,69.46
2018-10-03T10:18:39.012Z,70.37
2018-10-03T10:21:08.464Z,71.94
2018-10-03T10:23:37.953Z,70.16
2018-10-03T10:26:07.383Z,71.08
2018-10-03T10:28:36.808Z,70.22
2018-10-03T10:31:06.285Z,70.38
2018-10-03T10:33:35.688Z,71.02
2018-10-03T10:36:05.148Z,71.21
2018-10-03T10:38:34.563Z,70.56
2018-10-03T10:41:04.020Z,69.29
2018-10-03T10:43:33.557Z,66.12
2018-10-03T10:46:02.843Z,66.16
2018-10-03T10:48:32.275Z,63.54
2018-10-03T10:51:01.691Z,64.00
2018-10-03T10:53:31.140Z,64.47
2018-10-03T10:56:07.464Z,63.30
2018-10-03T10:58:36.884Z,64.88
2018-10-03T11:01:06.302Z,64.11
2018-10-03T11:03:35.732Z,63.86
2018-10-03T11:06:05.315Z,64.16
2018-10-03T11:08:34.676Z,63.71
2018-10-03T11:11:04.227Z,66.11
2018-10-03T11:13:33.668Z,66.28
2018-10-03T11:16:03.080Z,65.94
2018-10-03T11:18:32.499Z,66.44
2018-10-03T11:21:01.931Z,63.00
2018-10-03T11:23:31.594Z,61.95
2018-10-03T11:26:00.915Z,62.90
2018-10-03T11:28:31.322Z,63.72
2018-10-03T11:31:00.740Z,63.40
2018-10-03T11:33:30.238Z,63.98
2018-10-03T11:35:59.676Z,64.22
2018-10-03T11:38:29.092Z,64.33
2018-10-03T11:40:58.491Z,63.30
2018-10-03T11:43:27.915Z,60.83
2018-10-03T11:45:57.336Z,57.91
2018-10-03T11:48:26.750Z,59.84
2018-10-03T11:50:56.180Z,57.99
2018-10-03T11:53:25.596Z,58.86
2018-10-03T11:55:55.074Z,59.20
2018-10-03T11:58:24.494Z,60.16
2018-10-03T12:00:53.900Z,58.51
2018-10-03T12:03:23.359Z,58.58
2018-10-03T12:05:52.784Z,59.98
2018-10-03T12:08:22.190Z,59.47
2018-10-03T12:10:51.608Z,57.67
2018-10-03T12:13:21.025Z,57.85
2018-10-03T12:15:50.436Z,58.31
2018-10-03T12:18:19.852Z,55.66
2018-10-03T12:20:49.261Z,55.67
2018-10-03T12:23:18.663Z,57.63
2018-10-03T12:25:48.080Z,57.37
2018-10-03T12:28:17.484Z,57.71
2018-10-03T12:30:47.226Z,59.31
2018-10-03T12:33:17.065Z,55.11
2018-10-03T12:35:46.563Z,56.48
2018-10-03T12:38:16.381Z,56.39
2018-10-03T12:40:46.120Z,54.48
2018-10-03T12:43:15.733Z,54.11
2018-10-03T12:45:45.448Z,55.18
2018-10-03T12:48:15.096Z,55.91
2018-10-03T12:50:44.741Z,57.25
2018-10-03T12:53:14.549Z,57.63
2018-10-03T12:55:44.285Z,58.30
2018-10-03T12:58:13.987Z,58.88
2018-10-03T13:00:43.632Z,59.09
2018-10-03T13:03:13.362Z,57.28
2018-10-03T13:05:43.059Z,58.68
2018-10-03T13:08:12.692Z,59.95
2018-10-03T13:10:42.352Z,57.76
2018-10-03T13:13:12.019Z,58.33
2018-10-03T13:15:41.627Z,59.26
2018-10-03T13:18:11.690Z,59.05
2018-10-03T13:20:41.404Z,56.04
2018-10-03T13:23:11.783Z,55.96
2018-10-03T13:25:41.412Z,55.63
2018-10-03T13:28:11.693Z,56.75
2018-10-03T13:30:41.454Z,57.45
2018-10-03T13:33:18.184Z,55.20
2018-10-03T13:35:47.739Z,55.18
2018-10-03T13:38:17.260Z,52.63
2018-10-03T13:40:46.957Z,51.70
2018-10-03T13:43:16.639Z,49.11
2018-10-03T13:45:46.450Z,51.06
2018-10-03T13:48:16.070Z,53.36
2018-10-03T13:50:45.744Z,51.85
2018-10-03T13:53:15.488Z,51.66
2018-10-03T13:55:45.162Z,55.06
2018-10-03T13:58:14.801Z,57.03
2018-10-03T14:00:44.403Z,58.71
2018-10-03T14:03:14.109Z,60.15
2018-10-03T14:05:43.673Z,60.08
2018-10-03T14:08:13.237Z,58.54
2018-10-03T14:10:42.813Z,53.39
2018-10-03T14:13:12.351Z,53.38
2018-10-03T14:15:41.988Z,53.97
2018-10-03T14:18:11.868Z,52.18
2018-10-03T14:20:41.568Z,50.19
2018-10-03T14:23:11.844Z,49.67
2018-10-03T14:25:41.528Z,48.92
2018-10-03T14:28:11.924Z,48.04
2018-10-03T14:30:41.592Z,47.04
2018-10-03T14:33:11.904Z,46.26
2018-10-03T14:35:41.557Z,45.92
2018-10-03T14:38:11.887Z,46.71
2018-10-03T14:40:41.448Z,48.01
2018-10-03T14:43:11.937Z,48.67
2018-10-03T14:45:41.484Z,50.11
2018-10-03T14:48:11.984Z,50.57
2018-10-03T14:50:41.576Z,48.72
2018-10-03T14:53:11.941Z,48.79
2018-10-03T14:55:41.472Z,46.03
2018-10-03T14:58:11.860Z,47.16
2018-10-03T15:00:41.651Z,46.40
2018-10-03T15:03:11.766Z,48.28
2018-10-03T15:05:41.393Z,50.84
2018-10-03T15:08:18.460Z,52.59
2018-10-03T15:10:48.076Z,56.04
2018-10-03T15:13:17.773Z,57.43
2018-10-03T15:15:47.377Z,58.80
2018-10-03T15:18:17.151Z,58.56
2018-10-03T15:20:46.781Z,57.42
2018-10-03T15:23:16.356Z,56.72
2018-10-03T15:25:46.516Z,55.23
2018-10-03T15:28:16.120Z,54.59
2018-10-03T15:30:45.903Z,52.73
2018-10-03T15:33:15.568Z,53.15
2018-10-03T15:35:45.253Z,53.84
2018-10-03T15:38:14.818Z,52.66
2018-10-03T15:40:44.396Z,52.90
2018-10-03T15:43:14.001Z,52.54
2018-10-03T15:45:43.604Z,52.08
2018-10-03T15:48:13.327Z,53.95
2018-10-03T15:50:42.829Z,55.00
2018-10-03T15:53:12.517Z,54.83
2018-10-03T15:55:42.251Z,55.86
2018-10-03T15:58:11.927Z,56.91
2018-10-03T16:00:41.554Z,57.02
2018-10-03T16:03:11.884Z,56.45
2018-10-03T16:05:41.567Z,57.92
2018-10-03T16:08:12.016Z,58.87
2018-10-03T16:10:41.719Z,60.11
2018-10-03T16:13:12.019Z,61.28
2018-10-03T16:15:41.741Z,61.24
2018-10-03T16:18:11.841Z,61.69
2018-10-03T16:20:41.463Z,62.27
2018-10-03T16:23:11.759Z,63.57
2018-10-03T16:25:41.512Z,63.04
2018-10-03T16:28:11.889Z,64.05
2018-10-03T16:30:41.534Z,64.94
2018-10-03T16:33:11.908Z,65.34
2018-10-03T16:35:41.651Z,66.51
2018-10-03T16:38:11.849Z,66.67
2018-10-03T16:40:41.638Z,67.63
2018-10-03T16:43:12.020Z,68.66
2018-10-03T16:45:41.635Z,69.07
2018-10-03T16:48:12.400Z,68.89
2018-10-03T16:50:42.162Z,69.49
2018-10-03T16:53:12.145Z,70.71
2018-10-03T16:55:42.055Z,70.28
2018-10-03T16:58:12.877Z,71.06
2018-10-03T17:00:43.227Z,71.90
2018-10-03T17:03:13.592Z,71.83
2018-10-03T17:05:43.464Z,73.64
2018-10-03T17:08:14.190Z,74.69
2018-10-03T17:10:44.489Z,74.17
2018-10-03T17:13:14.555Z,74.79
2018-10-03T17:15:50.792Z,75.37
2018-10-03T17:18:20.658Z,74.55
2018-10-03T17:20:50.748Z,76.73
2018-10-03T17:23:21.399Z,76.79
2018-10-03T17:25:53.178Z,76.36
2018-10-03T17:28:25.494Z,78.44
2018-10-03T17:30:57.931Z,78.10
2018-10-03T17:33:30.371Z,79.47
2018-10-03T17:36:02.562Z,80.00
2018-10-03T17:38:35.301Z,80.78
2018-10-03T17:41:08.273Z,81.35
2018-10-03T17:43:40.853Z,81.70
2018-10-03T17:46:13.551Z,82.47
2018-10-03T17:48:46.206Z,82.18
2018-10-03T17:51:18.975Z,82.09
2018-10-03T17:53:51.814Z,82.73
2018-10-03T17:56:24.670Z,83.97
2018-10-03T17:58:57.446Z,84.38
2018-10-03T18:01:31.732Z,84.70
2018-10-03T18:04:04.747Z,84.96
2018-10-03T18:06:37.768Z,84.68
2018-10-03T18:09:13.317Z,84.75
2018-10-03T18:11:47.130Z,84.70
2018-10-03T18:14:19.874Z,84.70
2018-10-03T18:16:52.456Z,84.42
2018-10-03T18:19:25.544Z,85.25
2018-10-03T18:21:58.333Z,85.48
2018-10-03T18:24:38.315Z,85.05
2018-10-03T18:27:11.154Z,85.91
2018-10-03T18:29:43.944Z,86.27
2018-10-03T18:32:16.923Z,87.99
2018-10-03T18:34:51.565Z,87.33
2018-10-03T18:37:24.586Z,88.48
2018-10-03T18:39:57.368Z,89.65
2018-10-03T18:42:30.220Z,90.11
2018-10-03T18:45:03.283Z,90.43
2018-10-03T18:47:36.968Z,91.25
2018-10-03T18:50:09.873Z,91.03
2018-10-03T18:52:42.677Z,91.73
2018-10-03T18:55:16.242Z,91.85
2018-10-03T18:57:49.230Z,91.00
2018-10-03T19:00:22.787Z,92.09
2018-10-03T19:02:56.122Z,92.67
2018-10-03T19:05:29.104Z,91.75
2018-10-03T19:08:02.086Z,91.78
2018-10-03T19:10:35.263Z,91.37
2018-10-03T19:13:09.406Z,92.20
2018-10-03T19:15:42.942Z,93.10
2018-10-03T19:18:15.608Z,92.92
2018-10-03T19:20:48.783Z,93.06
2018-10-03T19:23:22.124Z,94.01
2018-10-03T19:25:55.230Z,93.96
2018-10-03T19:28:30.198Z,94.47
2018-10-03T19:31:03.233Z,94.30
2018-10-03T19:33:36.407Z,94.28
2018-10-03T19:36:10.058Z,94.77
2018-10-03T19:38:43.285Z,94.02
2018-10-03T19:41:16.602Z,94.48
2018-10-03T19:43:49.679Z,94.11
2018-10-03T19:46:22.990Z,94.43
2018-10-03T19:48:56.041Z,94.41
2018-10-03T19:51:29.209Z,94.50
2018-10-03T19:54:02.113Z,95.00
2018-10-03T19:56:35.837Z,95.58
2018-10-03T19:59:08.782Z,95.19
2018-10-03T20:01:41.790Z,95.74
2018-10-03T20:04:14.722Z,95.98
2018-10-03T20:06:48.517Z,96.16
2018-10-03T20:09:21.268Z,95.81
2018-10-03T20:11:55.090Z,95.85
2018-10-03T20:14:28.574Z,95.16
2018-10-03T20:17:01.786Z,95.07
2018-10-03T20:19:34.807Z,95.21
2018-10-03T20:22:12.044Z,95.14
2018-10-03T20:24:45.063Z,94.89
2018-10-03T20:27:18.264Z,95.79
2018-10-03T20:29:51.420Z,96.08
2018-10-03T20:32:24.602Z,96.25
2018-10-03T20:34:57.728Z,96.26
2018-10-03T20:37:30.661Z,96.42
2018-10-03T20:40:03.970Z,96.69
2018-10-03T20:42:37.057Z,97.24
2018-10-03T20:45:10.240Z,97.45
2018-10-03T20:47:43.238Z,97.67
2018-10-03T20:50:16.441Z,97.42
2018-10-03T20:52:49.406Z,97.58
2018-10-03T20:55:22.574Z,97.99
2018-10-03T20:57:57.075Z,98.00
2018-10-03T21:00:29.971Z,98.10
2018-10-03T21:03:03.191Z,98.45
2018-10-03T21:05:36.301Z,98.48
2018-10-03T21:08:09.584Z,97.80
2018-10-03T21:10:42.473Z,98.00
2018-10-03T21:13:15.582Z,97.70
2018-10-03T21:15:48.231Z,98.13
2018-10-03T21:18:19.824Z,97.89
2018-10-03T21:20:49.722Z,98.37
2018-10-03T21:23:19.349Z,98.32
2018-10-03T21:25:48.780Z,98.27
2018-10-03T21:28:18.235Z,98.59
2018-10-03T21:30:47.647Z,99.02
2018-10-03T21:33:17.078Z,99.29
2018-10-03T21:35:46.696Z,98.92
2018-10-03T21:38:16.127Z,98.77
2018-10-03T21:40:45.552Z,98.32
2018-10-03T21:43:15.060Z,97.99
2018-10-03T21:45:44.460Z,98.08
2018-10-03T21:48:13.863Z,97.73
2018-10-03T21:50:43.281Z,97.64
2018-10-03T21:53:12.688Z,98.19
2018-10-03T21:55:42.158Z,98.30
2018-10-03T21:58:12.608Z,99.18
2018-10-03T22:00:47.244Z,99.29
2018-10-03T22:03:16.656Z,99.43
2018-10-03T22:05:46.078Z,99.90
2018-10-03T22:08:15.472Z,99.86
2018-10-03T22:10:45.531Z,99.65
2018-10-03T22:13:14.983Z,99.99
2018-10-03T22:15:45.355Z,100.00
2018-10-03T22:18:14.780Z,99.84
2018-10-03T22:20:44.266Z,99.82
2018-10-03T22:23:13.689Z,99.88
2018-10-03T22:25:43.116Z,100.00
2018-10-03T22:28:12.612Z,100.00
2018-10-03T22:30:42.088Z,100.00
2018-10-03T22:33:12.744Z,100.00
2018-10-03T22:35:42.164Z,100.00
2018-10-03T22:38:12.568Z,100.00
2018-10-03T22:40:41.992Z,99.64
2018-10-03T22:43:12.631Z,100.00
2018-10-03T22:45:42.048Z,100.00
2018-10-03T22:48:12.673Z,100.00
2018-10-03T22:50:42.172Z,100.00
2018-10-03T22:53:12.621Z,100.00
2018-10-03T22:55:42.014Z,100.00
2018-10-03T22:58:12.688Z,100.00
2018-10-03T23:00:42.087Z,99.88
2018-10-03T23:03:12.859Z,100.00
2018-10-03T23:05:42.304Z,100.00
2018-10-03T23:08:12.583Z,100.00
2018-10-03T23:10:41.990Z,99.93
2018-10-03T23:13:12.634Z,99.61
2018-10-03T23:15:42.059Z,99.90
2018-10-03T23:18:12.772Z,99.36
2018-10-03T23:20:42.183Z,99.85
2018-10-03T23:23:12.639Z,99.95
2018-10-03T23:25:42.035Z,99.61
2018-10-03T23:28:12.852Z,99.86
2018-10-03T23:30:42.253Z,100.00
2018-10-03T23:33:12.651Z,100.00
2018-10-03T23:35:42.051Z,99.46
2018-10-03T23:38:12.609Z,99.15
2018-10-03T23:40:42.044Z,100.00
2018-10-03T23:43:12.759Z,100.00
2018-10-03T23:45:42.188Z,100.00
2018-10-03T23:48:12.783Z,100.00
2018-10-03T23:50:42.268Z,100.00
2018-10-03T23:53:12.608Z,100.00
2018-10-03T23:55:42.009Z,100.00
2018-10-03T23:58:12.752Z,100.00
